createdAt,value
2018-05-09T00:01:52.195Z,100411.08
2018-05-09T00:04:20.577Z,100413.04
2018-05-09T00:06:49.310Z,100416.44
2018-05-09T00:09:17.668Z,100415.79
2018-05-09T00:11:46.055Z,100419.23
2018-05-09T00:14:14.387Z,100413.91
2018-05-09T00:16:43.481Z,100418.62
2018-05-09T00:19:11.844Z,100417.28
2018-05-09T00:21:40.937Z,100416.75
2018-05-09T00:24:09.693Z,100415.69
2018-05-09T00:26:38.024Z,100413.60
2018-05-09T00:29:07.525Z,100403.30
2018-05-09T00:31:36.636Z,100406.43
2018-05-09T00:34:05.765Z,100406.40
2018-05-09T00:36:34.091Z,100408.06
2018-05-09T00:39:03.204Z,100403.39
2018-05-09T00:41:31.521Z,100402.50
2018-05-09T00:43:59.876Z,100398.45
2018-05-09T00:46:29.011Z,100400.14
2018-05-09T00:48:58.140Z,100402.25
2018-05-09T00:51:26.468Z,100400.45
2018-05-09T00:56:57.260Z,100392.91
2018-05-09T00:59:25.624Z,100395.93
2018-05-09T01:01:54.707Z,100395.21
2018-05-09T01:04:23.853Z,100392.50
2018-05-09T01:06:52.193Z,100387.86
2018-05-09T01:09:21.297Z,100398.26
2018-05-09T01:11:49.729Z,100396.34
2018-05-09T01:14:18.053Z,100394.09
2018-05-09T01:16:46.468Z,100391.88
2018-05-09T01:19:14.844Z,100389.84
2018-05-09T01:21:43.165Z,100387.48
2018-05-09T01:24:12.302Z,100390.61
2018-05-09T01:26:40.628Z,100384.73
2018-05-09T01:29:08.960Z,100387.87
2018-05-09T01:31:37.324Z,100384.33
2018-05-09T01:34:05.646Z,100396.59
2018-05-09T01:36:34.008Z,100390.16
2018-05-09T01:39:02.362Z,100388.91
2018-05-09T01:41:30.676Z,100389.42
2018-05-09T01:43:59.044Z,100387.34
2018-05-09T01:46:27.393Z,100384.64
2018-05-09T01:48:55.727Z,100388.31
2018-05-09T01:51:24.097Z,100383.77
2018-05-09T01:53:52.430Z,100374.11
2018-05-09T01:56:20.800Z,100377.09
2018-05-09T01:58:49.167Z,100377.25
2018-05-09T02:01:17.531Z,100373.34
2018-05-09T02:03:46.688Z,100373.16
2018-05-09T02:06:15.063Z,100374.16
2018-05-09T02:08:43.412Z,100374.53
2018-05-09T02:11:11.766Z,100377.44
2018-05-09T02:13:40.134Z,100381.92
2018-05-09T02:16:09.310Z,100385.94
2018-05-09T02:18:37.686Z,100386.64
2018-05-09T02:21:06.047Z,100384.05
2018-05-09T02:23:34.390Z,100379.97
2018-05-09T02:26:02.754Z,100375.30
2018-05-09T02:28:31.864Z,100373.06
2018-05-09T02:31:00.188Z,100366.37
2018-05-09T02:33:28.551Z,100360.75
2018-05-09T02:35:56.893Z,100361.58
2018-05-09T02:38:25.268Z,100357.23
2018-05-09T02:40:53.605Z,100353.70
2018-05-09T02:43:21.959Z,100355.53
2018-05-09T02:45:50.321Z,100355.50
2018-05-09T02:48:18.647Z,100354.66
2018-05-09T02:50:47.063Z,100354.20
2018-05-09T02:53:15.417Z,100355.78
2018-05-09T02:55:44.887Z,100355.45
2018-05-09T02:58:13.254Z,100352.16
2018-05-09T03:00:41.981Z,100354.22
2018-05-09T03:03:11.208Z,100357.78
2018-05-09T03:05:39.537Z,100362.13
2018-05-09T03:08:07.881Z,100357.84
2018-05-09T03:10:36.248Z,100353.80
2018-05-09T03:13:05.199Z,100348.86
2018-05-09T03:15:33.576Z,100351.82
2018-05-09T03:18:01.990Z,100349.50
2018-05-09T03:20:30.360Z,100350.76
2018-05-09T03:22:59.451Z,100347.84
2018-05-09T03:25:28.546Z,100346.23
2018-05-09T03:27:57.635Z,100352.98
2018-05-09T03:30:27.119Z,100346.89
2018-05-09T03:32:55.445Z,100346.75
2018-05-09T03:35:23.785Z,100344.03
2018-05-09T03:37:52.866Z,100343.62
2018-05-09T03:40:21.203Z,100344.38
2018-05-09T03:42:49.545Z,100345.83
2018-05-09T03:45:18.679Z,100348.71
2018-05-09T03:47:46.982Z,100341.33
2018-05-09T03:50:15.349Z,100336.06
2018-05-09T03:52:44.114Z,100334.91
2018-05-09T03:55:12.543Z,100334.16
2018-05-09T03:57:40.851Z,100335.77
2018-05-09T04:00:09.219Z,100339.84
2018-05-09T04:02:55.988Z,100340.57
2018-05-09T04:05:41.972Z,100329.41
2018-05-09T04:08:27.950Z,100343.20
2018-05-09T04:10:56.290Z,100337.45
2018-05-09T04:13:25.418Z,100338.18
2018-05-09T04:15:53.719Z,100337.66
2018-05-09T04:18:22.103Z,100343.63
2018-05-09T04:20:51.453Z,100339.74
2018-05-09T04:23:20.230Z,100340.97
2018-05-09T04:25:49.689Z,100342.42
2018-05-09T04:28:18.463Z,100335.73
2018-05-09T04:30:46.816Z,100335.60
2018-05-09T04:33:15.160Z,100328.69
2018-05-09T04:35:44.287Z,100332.75
2018-05-09T04:38:12.656Z,100335.55
2018-05-09T04:40:40.994Z,100330.80
2018-05-09T04:43:09.374Z,100332.21
2018-05-09T04:45:37.778Z,100334.63
2018-05-09T04:48:06.886Z,100327.58
2018-05-09T04:50:35.215Z,100328.08
2018-05-09T04:53:03.582Z,100328.30
2018-05-09T04:55:31.924Z,100330.12
2018-05-09T04:58:01.017Z,100331.08
2018-05-09T05:00:29.340Z,100328.50
2018-05-09T05:02:57.704Z,100324.36
2018-05-09T05:05:26.026Z,100321.67
2018-05-09T05:07:55.142Z,100324.09
2018-05-09T05:10:23.745Z,100327.02
2018-05-09T05:12:52.118Z,100329.80
2018-05-09T05:15:20.458Z,100324.98
2018-05-09T05:17:49.586Z,100325.69
2018-05-09T05:20:17.929Z,100336.46
2018-05-09T05:22:47.018Z,100335.36
2018-05-09T05:25:15.387Z,100333.64
2018-05-09T05:27:43.781Z,100331.30
2018-05-09T05:30:12.878Z,100331.84
2018-05-09T05:32:42.032Z,100335.06
2018-05-09T05:35:10.390Z,100329.06
2018-05-09T05:37:38.765Z,100333.03
2018-05-09T05:40:07.075Z,100332.75
2018-05-09T05:42:35.382Z,100332.13
2018-05-09T05:45:04.916Z,100329.02
2018-05-09T05:47:33.225Z,100320.83
2018-05-09T05:50:01.555Z,100325.75
2018-05-09T05:52:29.911Z,100313.12
2018-05-09T05:54:58.639Z,100314.35
2018-05-09T05:57:26.972Z,100323.02
2018-05-09T05:59:55.318Z,100322.61
2018-05-09T06:02:23.643Z,100324.27
2018-05-09T06:04:52.814Z,100326.90
2018-05-09T06:07:21.931Z,100331.34
2018-05-09T06:09:51.055Z,100328.55
2018-05-09T06:12:19.405Z,100328.65
2018-05-09T06:14:49.114Z,100336.27
2018-05-09T06:17:17.436Z,100333.99
2018-05-09T06:19:46.551Z,100339.77
2018-05-09T06:22:14.906Z,100345.86
2018-05-09T06:24:43.227Z,100342.72
2018-05-09T06:27:11.551Z,100343.89
2018-05-09T06:29:39.909Z,100350.05
2018-05-09T06:32:08.990Z,100343.38
2018-05-09T06:34:38.682Z,100349.05
2018-05-09T06:37:07.013Z,100353.23
2018-05-09T06:39:35.362Z,100357.12
2018-05-09T06:42:04.442Z,100351.30
2018-05-09T06:44:33.584Z,100352.52
2018-05-09T06:47:01.941Z,100356.06
2018-05-09T06:49:30.310Z,100360.63
2018-05-09T06:51:59.785Z,100364.56
2018-05-09T06:54:28.106Z,100366.34
2018-05-09T06:56:56.470Z,100358.39
2018-05-09T06:59:25.558Z,100370.36
2018-05-09T07:01:54.666Z,100368.16
2018-05-09T07:04:23.006Z,100364.31
2018-05-09T07:06:51.359Z,100371.12
2018-05-09T07:09:19.712Z,100365.45
2018-05-09T07:11:48.074Z,100366.17
2018-05-09T07:14:17.192Z,100369.77
2018-05-09T07:16:46.302Z,100363.32
2018-05-09T07:19:15.417Z,100367.08
2018-05-09T07:21:43.961Z,100362.59
2018-05-09T07:24:12.306Z,100359.55
2018-05-09T07:26:41.044Z,100359.28
2018-05-09T07:29:10.411Z,100361.70
2018-05-09T07:31:41.320Z,100366.92
2018-05-09T07:34:09.660Z,100365.72
2018-05-09T07:36:38.445Z,100365.24
2018-05-09T07:39:12.753Z,100361.11
2018-05-09T07:41:42.137Z,100364.35
2018-05-09T07:44:10.533Z,100363.83
2018-05-09T07:46:39.237Z,100371.12
2018-05-09T07:49:09.911Z,100372.03
2018-05-09T07:51:39.004Z,100374.53
2018-05-09T07:54:08.886Z,100361.42
2018-05-09T07:56:38.292Z,100367.47
2018-05-09T07:59:07.857Z,100368.14
2018-05-09T08:01:39.460Z,100369.16
2018-05-09T08:04:08.608Z,100375.94
2018-05-09T08:06:37.781Z,100367.08
2018-05-09T08:09:06.881Z,100365.50
2018-05-09T08:11:35.663Z,100370.82
2018-05-09T08:14:04.014Z,100375.14
2018-05-09T08:16:33.211Z,100363.52
2018-05-09T08:19:01.534Z,100364.29
2018-05-09T08:21:29.854Z,100360.48
2018-05-09T08:23:58.202Z,100355.59
2018-05-09T08:26:26.510Z,100353.90
2018-05-09T08:28:54.978Z,100353.83
2018-05-09T08:31:24.264Z,100348.15
2018-05-09T08:33:53.290Z,100352.52
2018-05-09T08:36:21.601Z,100354.73
2018-05-09T08:38:50.775Z,100357.70
2018-05-09T08:41:19.132Z,100365.36
2018-05-09T08:43:47.506Z,100360.83
2018-05-09T08:46:15.983Z,100351.16
2018-05-09T08:48:44.347Z,100348.38
2018-05-09T08:51:12.665Z,100338.19
2018-05-09T08:53:41.994Z,100338.65
2018-05-09T08:56:10.386Z,100341.11
2018-05-09T08:58:38.722Z,100343.92
2018-05-09T09:01:09.574Z,100335.60
2018-05-09T09:03:38.958Z,100324.29
2018-05-09T09:06:07.335Z,100324.08
2018-05-09T09:08:35.664Z,100321.19
2018-05-09T09:11:07.605Z,100324.75
2018-05-09T09:13:35.918Z,100326.19
2018-05-09T09:16:04.277Z,100327.88
2018-05-09T09:18:32.673Z,100331.96
2018-05-09T09:21:00.999Z,100332.42
2018-05-09T09:23:29.355Z,100325.73
2018-05-09T09:25:57.683Z,100318.73
2018-05-09T09:28:26.038Z,100315.39
2018-05-09T09:30:54.752Z,100320.06
2018-05-09T09:33:24.481Z,100324.17
2018-05-09T09:35:53.104Z,100331.31
2018-05-09T09:38:21.822Z,100325.42
2018-05-09T09:40:50.561Z,100318.92
2018-05-09T09:43:19.313Z,100320.98
2018-05-09T09:45:47.610Z,100314.67
2018-05-09T09:48:16.349Z,100320.62
2018-05-09T09:50:45.641Z,100321.43
2018-05-09T09:53:13.949Z,100320.85
2018-05-09T09:55:42.266Z,100320.60
2018-05-09T09:58:11.557Z,100318.75
2018-05-09T10:00:41.314Z,100320.61
2018-05-09T10:03:10.431Z,100323.91
2018-05-09T10:05:38.762Z,100316.36
2018-05-09T10:08:07.199Z,100314.37
2018-05-09T10:10:35.569Z,100314.38
2018-05-09T10:13:03.885Z,100312.73
2018-05-09T10:15:33.016Z,100307.10
2018-05-09T10:18:01.357Z,100313.67
2018-05-09T10:20:29.701Z,100304.91
2018-05-09T10:22:58.054Z,100305.02
2018-05-09T10:25:26.381Z,100306.52
2018-05-09T10:27:54.775Z,100292.77
2018-05-09T10:30:25.053Z,100301.59
2018-05-09T10:32:53.411Z,100295.45
2018-05-09T10:35:21.781Z,100303.47
2018-05-09T10:37:50.971Z,100300.11
2018-05-09T10:40:20.074Z,100299.98
2018-05-09T10:42:48.505Z,100297.09
2018-05-09T10:45:18.709Z,100303.06
2018-05-09T10:47:48.554Z,100303.00
2018-05-09T10:50:17.996Z,100303.55
2018-05-09T10:52:46.373Z,100290.88
2018-05-09T10:55:14.759Z,100295.89
2018-05-09T10:57:43.135Z,100295.63
2018-05-09T11:00:11.452Z,100290.30
2018-05-09T11:02:39.797Z,100287.01
2018-05-09T11:05:08.217Z,100286.70
2018-05-09T11:07:37.258Z,100288.16
2018-05-09T11:10:05.664Z,100284.69
2018-05-09T11:12:34.008Z,100287.84
2018-05-09T11:15:03.147Z,100278.43
2018-05-09T11:17:31.469Z,100276.91
2018-05-09T11:20:01.523Z,100276.44
2018-05-09T11:22:29.896Z,100282.47
2018-05-09T11:24:58.241Z,100282.81
2018-05-09T11:27:28.224Z,100278.17
2018-05-09T11:29:56.964Z,100284.36
2018-05-09T11:32:25.294Z,100283.95
2018-05-09T11:34:53.692Z,100287.61
2018-05-09T11:37:22.404Z,100287.88
2018-05-09T11:39:51.492Z,100284.55
2018-05-09T11:42:20.025Z,100284.57
2018-05-09T11:44:48.440Z,100280.83
2018-05-09T11:47:16.860Z,100278.72
2018-05-09T11:49:45.216Z,100280.22
2018-05-09T11:52:13.542Z,100280.41
2018-05-09T11:54:41.895Z,100272.05
2018-05-09T11:57:10.224Z,100270.70
2018-05-09T11:59:39.356Z,100266.70
2018-05-09T12:02:07.748Z,100263.05
2018-05-09T12:04:36.083Z,100256.00
2018-05-09T12:07:06.240Z,100261.30
2018-05-09T12:09:34.599Z,100266.59
2018-05-09T12:12:02.956Z,100256.02
2018-05-09T12:14:32.140Z,100253.20
2018-05-09T12:17:01.820Z,100260.28
2018-05-09T12:19:30.733Z,100255.45
2018-05-09T12:21:59.054Z,100258.38
2018-05-09T12:24:27.388Z,100254.05
2018-05-09T12:26:55.756Z,100248.98
2018-05-09T12:29:24.114Z,100246.38
2018-05-09T12:31:52.443Z,100242.05
2018-05-09T12:34:21.578Z,100243.58
2018-05-09T12:36:49.905Z,100242.06
2018-05-09T12:39:18.276Z,100233.84
2018-05-09T12:41:47.428Z,100230.52
2018-05-09T12:44:15.771Z,100227.63
2018-05-09T12:46:46.104Z,100230.03
2018-05-09T12:49:15.299Z,100228.37
2018-05-09T12:51:44.424Z,100213.78
2018-05-09T12:54:12.725Z,100218.45
2018-05-09T12:56:41.088Z,100218.94
2018-05-09T12:59:09.480Z,100219.63
2018-05-09T13:01:39.582Z,100209.72
2018-05-09T13:04:08.438Z,100210.08
2018-05-09T13:06:36.738Z,100211.26
2018-05-09T13:09:05.143Z,100205.72
2018-05-09T13:11:35.635Z,100208.45
2018-05-09T13:14:04.175Z,100195.94
2018-05-09T13:16:33.372Z,100191.94
2018-05-09T13:19:02.491Z,100196.09
2018-05-09T13:21:31.590Z,100186.65
2018-05-09T13:24:00.711Z,100179.86
2018-05-09T13:26:29.107Z,100176.48
2018-05-09T13:29:00.240Z,100169.36
2018-05-09T13:31:28.707Z,100175.01
2018-05-09T13:33:57.057Z,100166.99
2018-05-09T13:36:26.201Z,100166.75
2018-05-09T13:38:55.566Z,100163.84
2018-05-09T13:41:23.907Z,100163.83
2018-05-09T13:43:52.269Z,100156.94
2018-05-09T13:46:21.345Z,100148.87
2018-05-09T13:48:49.657Z,100142.69
2018-05-09T13:51:17.982Z,100139.55
2018-05-09T13:53:46.924Z,100132.05
2018-05-09T13:56:15.252Z,100134.44
2018-05-09T13:58:43.639Z,100132.36
2018-05-09T14:01:12.780Z,100118.16
2018-05-09T14:03:41.846Z,100118.83
2018-05-09T14:06:10.587Z,100114.83
2018-05-09T14:08:40.474Z,100105.33
2018-05-09T14:11:09.827Z,100106.41
2018-05-09T14:13:41.113Z,100104.55
2018-05-09T14:16:11.483Z,100103.44
2018-05-09T14:18:39.808Z,100106.64
2018-05-09T14:21:09.227Z,100095.17
2018-05-09T14:23:38.507Z,100097.13
2018-05-09T14:26:06.966Z,100088.23
2018-05-09T14:28:36.658Z,100085.69
2018-05-09T14:31:05.015Z,100077.33
2018-05-09T14:33:34.983Z,100076.70
2018-05-09T14:36:04.401Z,100078.50
2018-05-09T14:38:33.534Z,100071.78
2018-05-09T14:41:02.623Z,100065.10
2018-05-09T14:43:32.692Z,100068.81
2018-05-09T14:46:01.094Z,100060.78
2018-05-09T14:48:29.471Z,100063.72
2018-05-09T14:50:57.859Z,100062.05
2018-05-09T14:53:26.239Z,100067.58
2018-05-09T14:55:54.610Z,100064.28
2018-05-09T14:58:23.791Z,100062.50
2018-05-09T15:00:52.146Z,100059.02
2018-05-09T15:03:20.486Z,100057.55
2018-05-09T15:05:49.619Z,100056.25
2018-05-09T15:08:17.935Z,100059.03
2018-05-09T15:10:46.300Z,100056.45
2018-05-09T15:13:14.686Z,100052.28
2018-05-09T15:15:44.507Z,100046.84
2018-05-09T15:18:12.954Z,100042.39
2018-05-09T15:20:41.278Z,100038.11
2018-05-09T15:23:10.354Z,100044.36
2018-05-09T15:25:38.715Z,100052.10
2018-05-09T15:28:07.140Z,100052.98
2018-05-09T15:30:37.120Z,100044.95
2018-05-09T15:33:07.326Z,100034.84
2018-05-09T15:35:35.938Z,100031.36
2018-05-09T15:38:04.295Z,100025.20
2018-05-09T15:40:32.626Z,100016.73
2018-05-09T15:43:00.974Z,100017.25
2018-05-09T15:45:31.076Z,100019.23
2018-05-09T15:47:59.950Z,100015.07
2018-05-09T15:50:28.350Z,100008.02
2018-05-09T15:52:57.552Z,100007.18
2018-05-09T15:55:26.008Z,100010.52
2018-05-09T15:57:54.928Z,100003.68
2018-05-09T16:00:23.341Z,100007.88
2018-05-09T16:02:52.420Z,100002.66
2018-05-09T16:05:24.534Z,100007.09
2018-05-09T16:07:53.322Z,99999.80
2018-05-09T16:10:22.243Z,99998.78
2018-05-09T16:12:51.946Z,100003.16
2018-05-09T16:15:20.552Z,100001.42
2018-05-09T16:17:49.702Z,99999.17
2018-05-09T16:20:18.222Z,100003.02
2018-05-09T16:22:46.952Z,99999.28
2018-05-09T16:25:16.075Z,100003.70
2018-05-09T16:27:44.455Z,100004.48
2018-05-09T16:30:12.814Z,100007.08
2018-05-09T16:32:41.211Z,100010.56
2018-05-09T16:35:09.948Z,100014.94
2018-05-09T16:37:40.336Z,100022.72
2018-05-09T16:40:09.209Z,100022.06
2018-05-09T16:42:37.595Z,100032.79
2018-05-09T16:45:06.144Z,100031.14
2018-05-09T16:47:34.629Z,100029.67
2018-05-09T16:50:02.940Z,100033.70
2018-05-09T16:52:31.448Z,100034.71
2018-05-09T16:55:01.543Z,100036.77
2018-05-09T16:57:30.303Z,100031.91
2018-05-09T16:59:59.281Z,100035.75
2018-05-09T17:02:28.350Z,100022.00
2018-05-09T17:04:57.291Z,100025.81
2018-05-09T17:07:25.667Z,100015.54
2018-05-09T17:09:54.629Z,100002.23
2018-05-09T17:12:22.998Z,100011.86
2018-05-09T17:14:52.630Z,100022.48
2018-05-09T17:17:21.195Z,100026.58
2018-05-09T17:19:50.636Z,100008.80
2018-05-09T17:22:34.925Z,100034.77
2018-05-09T17:25:04.046Z,100025.11
2018-05-09T17:27:41.523Z,100024.50
2018-05-09T17:30:11.388Z,100026.35
2018-05-09T17:32:39.828Z,100034.52
2018-05-09T17:35:09.064Z,100024.22
2018-05-09T17:37:38.800Z,100029.97
2018-05-09T17:40:07.501Z,100025.92
2018-05-09T17:42:35.986Z,100024.11
2018-05-09T17:45:05.241Z,100022.62
2018-05-09T17:47:34.549Z,100026.23
2018-05-09T17:50:03.066Z,100023.09
2018-05-09T17:52:32.358Z,100026.28
2018-05-09T17:55:02.473Z,100032.80
2018-05-09T17:57:31.984Z,100035.50
2018-05-09T18:00:01.374Z,100032.91
2018-05-09T18:02:30.836Z,100036.28
2018-05-09T18:04:59.504Z,100031.10
2018-05-09T18:07:28.790Z,100028.34
2018-05-09T18:09:57.546Z,100025.39
2018-05-09T18:12:26.027Z,100028.23
2018-05-09T18:14:55.279Z,100027.49
2018-05-09T18:17:24.772Z,100021.30
2018-05-09T18:19:53.991Z,100019.98
2018-05-09T18:22:22.487Z,100023.02
2018-05-09T18:24:53.284Z,100019.47
2018-05-09T18:27:22.684Z,100025.94
2018-05-09T18:29:53.665Z,100023.11
2018-05-09T18:32:34.664Z,100031.16
2018-05-09T18:35:03.972Z,100034.44
2018-05-09T18:37:35.592Z,100032.18
2018-05-09T18:40:04.142Z,100034.02
2018-05-09T18:42:32.495Z,100021.08
2018-05-09T18:45:03.830Z,100015.07
2018-05-09T18:47:34.984Z,100015.47
2018-05-09T18:50:03.673Z,100017.05
2018-05-09T18:52:34.568Z,100019.48
2018-05-09T18:55:04.103Z,100010.65
2018-05-09T18:57:34.807Z,100021.73
2018-05-09T19:00:03.518Z,100022.42
2018-05-09T19:02:37.184Z,100021.67
2018-05-09T19:05:05.898Z,100029.65
2018-05-09T19:07:35.335Z,100027.06
2018-05-09T19:10:03.775Z,100033.64
2018-05-09T19:12:32.391Z,100035.41
2018-05-09T19:15:01.545Z,100047.91
2018-05-09T19:17:29.868Z,100043.63
2018-05-09T19:19:58.290Z,100054.00
2018-05-09T19:22:26.769Z,100058.09
2018-05-09T19:24:55.097Z,100061.59
2018-05-09T19:27:24.297Z,100056.76
2018-05-09T19:29:53.056Z,100056.23
2018-05-09T19:32:22.245Z,100064.66
2018-05-09T19:34:51.318Z,100067.30
2018-05-09T19:37:20.692Z,100056.48
2018-05-09T19:39:49.531Z,100067.17
2018-05-09T19:42:18.379Z,100065.62
2018-05-09T19:44:46.827Z,100071.64
2018-05-09T19:47:15.925Z,100067.34
2018-05-09T19:49:45.063Z,100072.70
2018-05-09T19:52:14.932Z,100076.64
2018-05-09T19:54:44.058Z,100069.21
2018-05-09T19:57:12.388Z,100070.45
2018-05-09T19:59:41.484Z,100073.55
2018-05-09T20:02:09.906Z,100069.87
2018-05-09T20:04:38.228Z,100060.95
2018-05-09T20:07:06.567Z,100057.72
2018-05-09T20:09:35.025Z,100057.56
2018-05-09T20:12:04.132Z,100049.42
2018-05-09T20:14:32.480Z,100051.14
2018-05-09T20:17:01.579Z,100055.59
2018-05-09T20:19:29.927Z,100050.14
2018-05-09T20:21:58.298Z,100051.28
2018-05-09T20:24:26.682Z,100047.02
2018-05-09T20:26:55.818Z,100049.14
2018-05-09T20:29:24.179Z,100052.25
2018-05-09T20:32:10.928Z,100054.45
2018-05-09T20:34:39.313Z,100052.16
2018-05-09T20:37:07.676Z,100051.30
2018-05-09T20:39:36.068Z,100058.23
2018-05-09T20:42:04.494Z,100059.16
2018-05-09T20:44:32.818Z,100060.55
2018-05-09T20:47:01.927Z,100067.69
2018-05-09T20:49:30.260Z,100067.16
2018-05-09T20:51:59.004Z,100059.69
2018-05-09T20:54:27.385Z,100063.38
2018-05-09T20:56:55.731Z,100065.86
2018-05-09T20:59:24.053Z,100055.83
2018-05-09T21:01:52.415Z,100056.06
2018-05-09T21:04:20.754Z,100057.17
2018-05-09T21:06:49.442Z,100055.55
2018-05-09T21:09:17.983Z,100055.35
2018-05-09T21:14:45.984Z,100050.44
2018-05-09T21:17:16.062Z,100043.46
2018-05-09T21:19:44.379Z,100056.67
2018-05-09T21:22:13.488Z,100065.86
2018-05-09T21:24:42.581Z,100057.78
2018-05-09T21:27:10.955Z,100055.65
2018-05-09T21:29:39.321Z,100057.30
2018-05-09T21:32:08.410Z,100061.22
2018-05-09T21:34:36.754Z,100049.41
2018-05-09T21:37:05.123Z,100049.16
2018-05-09T21:39:33.470Z,100053.92
2018-05-09T21:42:01.808Z,100049.36
2018-05-09T21:44:30.140Z,100045.55
2018-05-09T21:46:58.478Z,100049.76
2018-05-09T21:49:26.843Z,100053.48
2018-05-09T21:51:55.181Z,100058.32
2018-05-09T21:54:23.543Z,100055.59
2018-05-09T21:56:51.907Z,100058.15
2018-05-09T21:59:21.594Z,100056.94
2018-05-09T22:01:49.965Z,100059.38
2018-05-09T22:04:18.301Z,100060.06
2018-05-09T22:06:46.677Z,100062.45
2018-05-09T22:09:14.985Z,100071.14
2018-05-09T22:11:43.333Z,100084.36
2018-05-09T22:14:11.645Z,100078.27
2018-05-09T22:16:39.990Z,100086.01
2018-05-09T22:19:08.317Z,100079.12
2018-05-09T22:21:36.620Z,100081.39
2018-05-09T22:24:04.994Z,100089.04
2018-05-09T22:26:33.373Z,100077.89
2018-05-09T22:29:01.713Z,100076.12
2018-05-09T22:31:30.048Z,100075.64
2018-05-09T22:33:58.371Z,100070.46
2018-05-09T22:36:26.713Z,100073.39
2018-05-09T22:38:55.026Z,100075.59
2018-05-09T22:41:23.375Z,100074.47
2018-05-09T22:43:51.780Z,100069.89
2018-05-09T22:46:20.219Z,100073.91
2018-05-09T22:48:48.600Z,100068.42
2018-05-09T22:51:16.934Z,100051.78
2018-05-09T22:53:46.078Z,100056.53
2018-05-09T22:56:14.418Z,100069.02
2018-05-09T22:58:43.554Z,100056.88
2018-05-09T23:01:11.898Z,100053.42
2018-05-09T23:03:40.246Z,100065.73
2018-05-09T23:06:09.353Z,100056.84
2018-05-09T23:08:38.492Z,100055.97
2018-05-09T23:11:06.838Z,100051.14
2018-05-09T23:13:35.201Z,100051.31
2018-05-09T23:16:04.301Z,100063.88
2018-05-09T23:18:33.396Z,100060.26
2018-05-09T23:21:02.509Z,100056.63
2018-05-09T23:23:30.872Z,100057.80
2018-05-09T23:26:00.695Z,100050.66
2018-05-09T23:28:29.822Z,100055.77
2018-05-09T23:30:59.305Z,100052.34
2018-05-09T23:33:27.656Z,100051.70
2018-05-09T23:35:56.741Z,100051.83
2018-05-09T23:38:25.077Z,100044.61
2018-05-09T23:40:53.441Z,100051.40
2018-05-09T23:43:21.776Z,100051.13
2018-05-09T23:45:50.908Z,100053.81
2018-05-09T23:48:19.285Z,100051.56
2018-05-09T23:50:47.602Z,100047.55
2018-05-09T23:53:16.029Z,100044.91
2018-05-09T23:55:44.394Z,100048.72
2018-05-09T23:58:12.690Z,100043.96
